Time;durP1;ratioP1;P1;durP2;ratioP2;P2;SDS_P1;SDS_P2;PMS_P1;PMS_P2;Temp;Humidity;BMP_temperature;BMP_pressure;BME280_temperature;BME280_humidity;BME280_pressure;Samples;Min_cycle;Max_cycle;Signal;HPM_P1;HPM_P2
2023/03/21 00:01:11;;;;;;;4.78;2.28;;;;;;;19.30;43.99;101612.88;5050863;28;20740;-73
2023/03/21 00:03:37;;;;;;;5.47;2.22;;;;;;;19.31;44.14;101601.38;5041881;28;20036;-73
2023/03/21 00:06:07;;;;;;;4.45;2.13;;;;;;;19.31;44.11;101605.78;5050068;28;20036;-73
2023/03/21 00:08:33;;;;;;;5.55;2.42;;;;;;;19.31;44.13;101603.16;5049766;28;20541;-74
2023/03/21 00:11:01;;;;;;;4.97;2.20;;;;;;;19.31;44.13;101603.16;5051355;28;20040;-73
2023/03/21 00:13:31;;;;;;;5.63;2.22;;;;;;;19.23;43.96;101587.03;5051157;28;20083;-74
2023/03/21 00:15:57;;;;;;;6.43;2.53;;;;;;;19.28;44.28;101590.16;5051161;28;20037;-72
2023/03/21 00:18:24;;;;;;;4.82;2.08;;;;;;;19.27;43.77;101593.78;5050243;28;20097;-72
2023/03/21 00:20:57;;;;;;;5.88;2.05;;;;;;;19.26;43.97;101587.63;5051093;28;20044;-72
2023/03/21 00:23:26;;;;;;;6.45;2.30;;;;;;;19.28;44.09;101584.88;5051801;28;20037;-72
2023/03/21 00:25:52;;;;;;;5.35;2.20;;;;;;;19.27;44.42;101583.22;5051002;28;20405;-72
2023/03/21 00:28:17;;;;;;;4.93;2.50;;;;;;;19.24;44.08;101576.34;5050717;28;20029;-72
2023/03/21 00:30:43;;;;;;;5.63;2.20;;;;;;;19.25;44.20;101575.41;5050528;28;20063;-72
2023/03/21 00:33:08;;;;;;;4.63;2.10;;;;;;;19.24;44.14;101572.88;5051038;28;20040;-72
2023/03/21 00:35:34;;;;;;;5.00;2.30;;;;;;;19.23;44.10;101569.34;5050120;28;20082;-73
2023/03/21 00:37:59;;;;;;;5.72;2.22;;;;;;;19.22;44.24;101570.34;5050654;28;20033;-72
2023/03/21 00:40:25;;;;;;;5.50;2.40;;;;;;;19.19;44.08;101563.47;5044653;28;20037;-72
2023/03/21 00:42:50;;;;;;;5.35;2.38;;;;;;;19.21;44.14;101563.34;5050070;28;20064;-74
2023/03/21 00:45:18;;;;;;;5.70;2.10;;;;;;;19.19;44.01;101557.34;5052010;28;20036;-72
2023/03/21 00:47:43;;;;;;;5.45;2.17;;;;;;;19.18;43.90;101548.59;5054111;28;20072;-72
2023/03/21 00:50:10;;;;;;;5.25;2.70;;;;;;;19.18;44.17;101553.00;5053568;28;20067;-72
2023/03/21 00:52:36;;;;;;;6.50;2.42;;;;;;;19.15;44.05;101545.31;5054083;28;20098;-72
2023/03/21 00:55:01;;;;;;;5.35;2.25;;;;;;;19.17;43.95;101546.06;5052364;28;20036;-73
2023/03/21 00:57:27;;;;;;;4.68;1.92;;;;;;;19.16;44.11;101536.44;5052123;28;20025;-72
2023/03/21 00:59:52;;;;;;;4.53;1.90;;;;;;;19.17;44.01;101540.78;5053919;28;20037;-73
2023/03/21 01:02:21;;;;;;;5.72;2.40;;;;;;;19.16;44.11;101533.78;5054292;28;20025;-73
2023/03/21 01:04:48;;;;;;;5.30;2.20;;;;;;;19.15;44.08;101537.38;5054303;28;20033;-72
2023/03/21 01:07:13;;;;;;;6.47;2.38;;;;;;;19.12;44.10;101525.28;5053451;28;20059;-73
2023/03/21 01:09:38;;;;;;;7.07;2.13;;;;;;;19.13;44.06;101526.94;5052932;28;20033;-71
2023/03/21 01:12:04;;;;;;;5.57;2.17;;;;;;;19.13;43.90;101524.28;5053029;28;20060;-73
2023/03/21 01:14:29;;;;;;;5.88;2.10;;;;;;;19.14;44.08;101522.50;5054324;28;20086;-73
2023/03/21 01:16:55;;;;;;;4.63;1.85;;;;;;;19.12;43.83;101519.97;5051857;28;20029;-73
2023/03/21 01:19:25;;;;;;;4.43;2.17;;;;;;;19.11;44.05;101513.00;5053462;28;20056;-73
2023/03/21 01:21:50;;;;;;;4.97;2.20;;;;;;;19.11;43.80;101514.81;5053872;28;20808;-73
2023/03/21 01:24:15;;;;;;;5.25;2.13;;;;;;;19.08;43.89;101505.31;5051676;28;20060;-71
2023/03/21 01:26:41;;;;;;;4.97;2.10;;;;;;;19.08;43.96;101507.13;5053237;28;20036;-74
2023/03/21 01:29:06;;;;;;;4.97;2.20;;;;;;;19.06;43.96;101507.22;5053942;28;20107;-73
2023/03/21 01:31:32;;;;;;;4.03;1.90;;;;;;;19.07;44.14;101502.78;5054261;28;20068;-74
2023/03/21 01:33:57;;;;;;;6.03;2.25;;;;;;;19.07;43.89;101508.88;5053376;28;20116;-74
2023/03/21 01:36:25;;;;;;;4.28;2.20;;;;;;;19.06;43.99;101504.59;5052049;28;20036;-74
2023/03/21 01:38:52;;;;;;;5.95;2.45;;;;;;;19.08;43.91;101501.84;5052262;28;20570;-73
2023/03/21 01:41:25;;;;;;;6.93;2.25;;;;;;;19.06;44.05;101494.03;5053129;28;20058;-71
2023/03/21 01:43:51;;;;;;;4.93;2.13;;;;;;;19.05;44.15;101491.50;5056198;28;20032;-73
2023/03/21 01:46:38;;;;;;;5.00;2.33;;;;;;;19.05;44.13;101494.13;5051939;28;20086;-73
2023/03/21 01:49:19;;;;;;;5.70;2.35;;;;;;;19.05;44.06;101494.13;5052800;28;20167;-73
2023/03/21 01:51:50;;;;;;;4.97;2.05;;;;;;;19.05;44.00;101500.25;5052980;28;20044;-73
2023/03/21 01:54:30;;;;;;;5.30;2.00;;;;;;;19.02;43.91;101495.19;5054838;28;20044;-71
2023/03/21 01:56:58;;;;;;;6.25;2.05;;;;;;;19.02;44.04;101490.75;5058058;28;20537;-72
2023/03/21 01:59:28;;;;;;;6.80;2.10;;;;;;;19.02;44.01;101490.75;5058241;28;20469;-71
2023/03/21 02:01:58;;;;;;;4.13;1.98;;;;;;;18.99;43.90;101482.22;5058463;28;20126;-72
2023/03/21 02:04:26;;;;;;;6.13;2.67;;;;;;;19.01;43.99;101478.50;5058225;28;20106;-72
2023/03/21 02:06:57;;;;;;;4.72;2.10;;;;;;;18.95;43.96;101467.56;5053916;28;20107;-72
2023/03/21 02:09:26;;;;;;;5.55;2.13;;;;;;;18.96;43.86;101469.22;5052719;28;20040;-72
2023/03/21 02:11:53;;;;;;;5.75;2.33;;;;;;;18.96;43.82;101463.94;5051865;28;20040;-74
2023/03/21 02:14:19;;;;;;;4.38;1.83;;;;;;;18.94;43.76;101456.13;5052474;28;20029;-73
2023/03/21 02:16:47;;;;;;;5.28;2.20;;;;;;;18.98;43.58;101469.97;5052042;28;20035;-71
2023/03/21 02:19:50;;;;;;;5.85;2.13;;;;;;;18.96;43.79;101461.31;5051857;28;20895;-74
2023/03/21 02:22:35;;;;;;;5.13;2.15;;;;;;;18.94;43.95;101452.66;5052101;28;20064;-73
2023/03/21 02:25:13;;;;;;;6.90;2.35;;;;;;;18.96;44.01;101454.25;5052592;28;20081;-72
2023/03/21 02:27:47;;;;;;;4.90;1.98;;;;;;;18.94;43.95;101448.22;5052521;28;20044;-72
2023/03/21 02:30:45;;;;;;;5.60;2.10;;;;;;;18.94;43.97;101448.22;5052553;28;20033;-73
2023/03/21 02:33:29;;;;;;;4.57;1.90;;;;;;;18.96;44.13;101450.75;5052251;28;20036;-72
2023/03/21 02:36:03;;;;;;;6.63;2.20;;;;;;;18.94;44.01;101440.28;5052280;28;20121;-73
2023/03/21 02:38:44;;;;;;;6.47;2.10;;;;;;;18.93;43.90;101440.41;5051945;28;20045;-74
2023/03/21 02:41:18;;;;;;;5.78;2.20;;;;;;;18.94;44.07;101439.47;5050295;28;20759;-74
2023/03/21 02:44:15;;;;;;;6.00;2.13;;;;;;;18.92;43.82;101434.28;5051895;28;20797;-72
2023/03/21 02:47:10;;;;;;;4.85;1.92;;;;;;;18.92;43.61;101438.75;5052224;28;20151;-72
2023/03/21 02:49:48;;;;;;;;;;;;;;;18.95;43.80;101434.06;5049629;28;20048;-72
2023/03/21 02:52:19;;;;;;;5.10;2.25;;;;;;;18.93;43.81;101435.13;5050692;28;19913;-73
2023/03/21 02:54:47;;;;;;;5.30;2.20;;;;;;;18.90;43.79;101422.16;5051879;28;20477;-73
2023/03/21 02:57:15;;;;;;;4.65;1.70;;;;;;;18.89;43.79;101420.50;5051595;28;20048;-72
2023/03/21 02:59:41;;;;;;;5.50;2.22;;;;;;;18.90;43.87;101427.44;5050521;28;20509;-73
2023/03/21 03:02:07;;;;;;;5.05;2.20;;;;;;;18.89;43.81;101420.50;5051286;28;20036;-71
2023/03/21 03:04:32;;;;;;;7.30;2.50;;;;;;;18.85;43.78;101417.25;5051282;28;20366;-73
2023/03/21 03:06:57;;;;;;;5.20;2.00;;;;;;;18.88;43.91;101419.63;5049669;28;20037;-74
2023/03/21 03:09:37;;;;;;;6.27;2.50;;;;;;;18.87;43.89;101415.31;5051260;28;20500;-73
2023/03/21 03:12:34;;;;;;;6.25;2.10;;;;;;;18.83;43.88;101404.13;5051085;28;20056;-73
2023/03/21 03:15:16;;;;;;;3.63;1.85;;;;;;;18.85;43.90;101406.69;5051260;28;20028;-73
2023/03/21 03:17:59;;;;;;;5.63;2.33;;;;;;;18.82;43.88;101407.72;5051661;28;20047;-73
2023/03/21 03:20:43;;;;;;;5.70;2.10;;;;;;;18.86;44.07;101416.25;5051765;28;20326;-73
2023/03/21 03:23:20;;;;;;;4.63;2.00;;;;;;;18.85;43.86;101404.03;5051324;28;20454;-72
2023/03/21 03:26:11;;;;;;;4.57;2.10;;;;;;;18.81;43.93;101397.25;5051090;28;20039;-73
2023/03/21 03:28:41;;;;;;;5.15;2.10;;;;;;;18.83;44.06;101404.13;5051368;28;20397;-73
2023/03/21 03:31:11;;;;;;;4.57;2.10;;;;;;;18.82;44.08;101399.78;5051596;28;20028;-71
2023/03/21 03:33:41;;;;;;;6.57;2.53;;;;;;;18.82;44.00;101404.25;5051531;28;20591;-73
2023/03/21 03:36:10;;;;;;;7.05;2.92;;;;;;;18.80;43.98;101407.00;5051354;28;20037;-73
2023/03/21 03:38:37;;;;;;;6.43;2.35;;;;;;;18.79;44.01;101388.63;5051123;28;20032;-73
2023/03/21 03:41:19;;;;;;;7.50;2.35;;;;;;;18.77;44.32;101394.03;5051122;28;20036;-73
2023/03/21 03:43:52;;;;;;;5.38;2.38;;;;;;;18.77;44.06;101394.03;5051034;28;20037;-73
2023/03/21 03:46:28;;;;;;;5.78;2.38;;;;;;;18.80;43.97;101392.94;5050392;28;21013;-74
2023/03/21 03:48:59;;;;;;;6.90;2.30;;;;;;;18.78;43.91;101384.28;5050825;28;20040;-72
2023/03/21 03:51:30;;;;;;;4.68;2.03;;;;;;;18.78;43.87;101386.94;5041059;28;20147;-72
2023/03/21 03:54:00;;;;;;;5.22;2.03;;;;;;;18.78;43.91;101385.13;5050914;28;20037;-73
2023/03/21 03:56:27;;;;;;;5.82;2.20;;;;;;;18.77;43.92;101377.31;5050809;28;20037;-73
2023/03/21 03:58:52;;;;;;;4.45;2.08;;;;;;;18.76;43.94;101386.22;5050771;28;20485;-73
2023/03/21 04:01:18;;;;;;;5.72;2.30;;;;;;;18.78;44.01;101385.13;5051174;28;20033;-73
2023/03/21 04:03:47;;;;;;;6.40;2.00;;;;;;;18.74;43.98;101373.13;5050926;28;20033;-72
2023/03/21 04:06:13;;;;;;;5.07;1.90;;;;;;;18.77;44.29;101383.47;5050339;28;20464;-73
2023/03/21 04:08:38;;;;;;;5.53;2.00;;;;;;;18.77;43.98;101383.47;5040747;28;20040;-72
2023/03/21 04:11:04;;;;;;;4.97;1.90;;;;;;;18.75;44.14;101374.78;5050955;28;20037;-73
2023/03/21 04:13:30;;;;;;;6.65;2.38;;;;;;;18.77;44.12;101372.91;5050248;28;20029;-75
2023/03/21 04:15:55;;;;;;;4.97;2.15;;;;;;;18.78;44.09;101376.38;5051305;28;20427;-73
2023/03/21 04:18:22;;;;;;;4.72;2.08;;;;;;;18.74;44.11;101361.69;5050175;28;20156;-70
2023/03/21 04:20:49;;;;;;;4.65;2.20;;;;;;;18.74;43.92;101361.69;5047034;28;20029;-73
2023/03/21 04:23:16;;;;;;;4.05;2.10;;;;;;;18.75;44.18;101363.41;5054733;28;20031;-74
2023/03/21 04:25:41;;;;;;;4.80;2.17;;;;;;;18.75;44.08;101368.69;5054408;28;20139;-74
2023/03/21 04:28:07;;;;;;;5.03;2.55;;;;;;;18.76;44.19;101367.72;5054710;28;20111;-74
2023/03/21 04:30:33;;;;;;;5.97;2.53;;;;;;;18.73;43.88;101357.41;5052327;28;20033;-73
2023/03/21 04:32:59;;;;;;;6.90;2.38;;;;;;;18.73;44.11;101360.03;5054009;28;20075;-73
2023/03/21 04:35:26;;;;;;;5.25;2.33;;;;;;;18.72;44.05;101356.53;5054329;28;20033;-72
2023/03/21 04:37:51;;;;;;;6.25;2.00;;;;;;;18.72;43.92;101353.91;5053816;28;20156;-73
2023/03/21 04:40:17;;;;;;;5.13;2.13;;;;;;;18.73;44.09;101346.84;5054699;28;20037;-73
2023/03/21 04:42:43;;;;;;;5.93;2.20;;;;;;;18.74;44.12;101351.13;5054148;28;20028;-73
2023/03/21 04:45:09;;;;;;;5.57;2.30;;;;;;;18.74;44.09;101353.78;5054290;28;20036;-74
2023/03/21 04:47:35;;;;;;;5.70;2.10;;;;;;;18.68;43.97;101341.91;5053995;28;20033;-74
2023/03/21 04:50:00;;;;;;;6.03;2.63;;;;;;;18.73;44.04;101350.31;5054125;28;20037;-73
2023/03/21 04:52:25;;;;;;;4.85;2.10;;;;;;;18.73;44.33;101344.19;5052826;28;20036;-72
2023/03/21 04:54:51;;;;;;;4.55;2.05;;;;;;;18.70;44.00;101334.69;5053946;28;20074;-75
2023/03/21 04:57:16;;;;;;;5.78;2.17;;;;;;;18.71;43.94;101335.53;5052339;28;20033;-72
2023/03/21 04:59:42;;;;;;;6.28;2.50;;;;;;;18.72;44.22;101334.59;5053846;28;20115;-73
2023/03/21 05:02:07;;;;;;;5.93;2.30;;;;;;;18.71;44.00;101338.16;5053725;28;20075;-72
2023/03/21 05:04:32;;;;;;;5.10;2.33;;;;;;;18.70;43.95;101336.50;5053504;28;20060;-72
2023/03/21 05:06:58;;;;;;;5.20;2.25;;;;;;;18.69;43.86;101335.63;5053794;28;20097;-73
2023/03/21 05:09:23;;;;;;;4.43;2.20;;;;;;;18.70;44.03;101329.41;5052554;28;20384;-73
2023/03/21 05:11:49;;;;;;;5.30;2.38;;;;;;;18.68;44.02;101332.16;5053586;28;20071;-72
2023/03/21 05:14:19;;;;;;;5.57;2.20;;;;;;;18.66;44.11;101327.97;5053555;28;20060;-74
2023/03/21 05:16:47;;;;;;;6.40;2.75;;;;;;;18.65;43.93;101329.75;5053566;28;20044;-74
2023/03/21 05:19:14;;;;;;;5.05;2.38;;;;;;;18.68;44.03;101337.44;5053011;28;20080;-73
2023/03/21 05:21:40;;;;;;;4.95;2.10;;;;;;;18.66;43.85;101330.63;5053609;28;20028;-75
2023/03/21 05:24:12;;;;;;;5.60;2.40;;;;;;;18.64;43.78;101328.09;5052829;28;20048;-73
2023/03/21 05:26:38;;;;;;;5.35;2.97;;;;;;;18.64;43.84;101330.75;5053306;28;20028;-74
2023/03/21 05:29:04;;;;;;;5.68;2.20;;;;;;;18.66;43.76;101330.63;5053058;28;20037;-73
2023/03/21 05:31:30;;;;;;;6.05;2.30;;;;;;;18.65;43.92;101329.75;5052521;28;20040;-75
2023/03/21 05:33:55;;;;;;;5.50;2.22;;;;;;;18.65;44.07;101331.56;5052817;28;20028;-73
2023/03/21 05:36:21;;;;;;;5.80;2.38;;;;;;;18.61;43.92;101327.47;5053487;28;20469;-73
2023/03/21 05:38:46;;;;;;;4.43;2.15;;;;;;;18.64;43.84;101327.25;5053119;28;20047;-73
2023/03/21 05:41:13;;;;;;;6.93;2.28;;;;;;;18.62;43.93;101330.00;5052352;28;20396;-74
2023/03/21 05:43:38;;;;;;;7.35;2.20;;;;;;;18.62;43.94;101326.53;5052935;28;20078;-73
2023/03/21 05:46:04;;;;;;;5.32;2.30;;;;;;;18.63;43.85;101322.94;5054062;28;20044;-72
2023/03/21 05:48:29;;;;;;;5.68;2.30;;;;;;;18.62;43.88;101324.72;5052623;28;20119;-75
2023/03/21 05:50:55;;;;;;;4.97;2.20;;;;;;;18.62;43.99;101327.34;5053075;28;20138;-73
2023/03/21 05:53:20;;;;;;;5.82;2.03;;;;;;;18.62;43.98;101326.53;5052631;28;20063;-71
2023/03/21 05:55:46;;;;;;;5.40;2.20;;;;;;;18.62;43.94;101326.53;5052626;28;20040;-72
2023/03/21 05:58:11;;;;;;;5.13;2.00;;;;;;;18.61;44.12;101320.41;5052442;28;20033;-73
2023/03/21 06:00:36;;;;;;;4.80;2.13;;;;;;;18.62;44.18;101332.63;5051308;28;20028;-73
2023/03/21 06:03:02;;;;;;;7.93;2.28;;;;;;;18.62;44.24;101322.06;5052035;28;20509;-72
2023/03/21 06:05:27;;;;;;;7.30;2.60;;;;;;;18.61;43.95;101322.19;5052934;28;20025;-72
2023/03/21 06:07:52;;;;;;;5.47;2.33;;;;;;;18.63;44.05;101321.13;5052624;28;20036;-72
2023/03/21 06:10:18;;;;;;;5.68;2.05;;;;;;;18.60;44.10;101318.72;5051366;28;20029;-72
2023/03/21 06:12:43;;;;;;;6.90;2.35;;;;;;;18.59;43.81;101318.84;5052237;28;20097;-73
2023/03/21 06:15:09;;;;;;;7.38;2.00;;;;;;;18.61;43.91;101324.81;5052083;28;20587;-71
2023/03/21 06:17:34;;;;;;;4.78;2.10;;;;;;;18.61;44.00;101324.81;5052035;28;20088;-72
2023/03/21 06:20:00;;;;;;;5.93;2.30;;;;;;;18.59;43.83;101324.94;5053109;28;20063;-71
2023/03/21 06:22:26;;;;;;;5.05;1.75;;;;;;;18.58;44.07;101320.63;5052330;28;20043;-72
2023/03/21 06:24:51;;;;;;;5.05;1.77;;;;;;;18.63;44.04;101334.31;5052194;28;20624;-74
2023/03/21 06:27:17;;;;;;;4.20;1.55;;;;;;;18.66;44.06;101335.91;5053174;28;20582;-72
2023/03/21 06:29:42;;;;;;;5.22;2.00;;;;;;;18.67;43.96;101335.78;5051676;28;20037;-71
2023/03/21 06:32:07;;;;;;;4.07;1.70;;;;;;;18.65;43.81;101329.75;5052193;28;20051;-73
2023/03/21 06:34:33;;;;;;;4.22;1.85;;;;;;;18.73;44.18;101336.28;5049965;28;20611;-73
2023/03/21 06:36:58;;;;;;;5.32;1.60;;;;;;;18.72;44.20;101331.94;5051793;28;20426;-73
2023/03/21 06:39:23;;;;;;;5.15;1.70;;;;;;;18.75;43.85;101339.63;5051386;28;20974;-73
2023/03/21 06:41:49;;;;;;;4.70;1.63;;;;;;;18.71;44.02;101336.38;5051793;28;20036;-73
2023/03/21 06:44:14;;;;;;;5.13;1.70;;;;;;;18.79;44.17;101336.63;5050903;28;20610;-74
2023/03/21 06:46:39;;;;;;;5.40;1.70;;;;;;;18.80;44.05;101338.34;5066861;28;20225;-71
2023/03/21 06:49:05;;;;;;;3.35;1.50;;;;;;;18.85;44.00;101338.84;5050880;28;20040;-74
2023/03/21 06:51:30;;;;;;;5.65;2.10;;;;;;;18.87;44.00;101337.88;5051711;28;20078;-71
2023/03/21 06:53:55;;;;;;;4.10;1.65;;;;;;;18.89;44.02;101339.44;5051156;28;20033;-73
2023/03/21 06:56:21;;;;;;;4.05;1.60;;;;;;;18.91;44.23;101347.25;5051570;28;20044;-73
2023/03/21 06:58:46;;;;;;;3.42;1.50;;;;;;;18.90;44.04;101340.28;5050994;28;20041;-76
2023/03/21 07:01:13;;;;;;;3.15;1.40;;;;;;;18.93;43.73;101345.31;5051472;28;20049;-76
2023/03/21 07:03:39;;;;;;;4.45;1.75;;;;;;;18.94;43.81;101344.38;5052183;28;20029;-73
2023/03/21 07:06:10;;;;;;;4.85;1.60;;;;;;;18.95;43.91;101351.34;5051394;28;20025;-75
2023/03/21 07:08:36;;;;;;;3.58;1.50;;;;;;;18.96;43.78;101350.38;5051501;28;20040;-74
2023/03/21 07:11:01;;;;;;;4.97;1.58;;;;;;;18.96;43.91;101350.38;5050458;28;20040;-75
2023/03/21 07:13:26;;;;;;;3.90;1.60;;;;;;;18.99;43.99;101353.66;5050803;28;20563;-74
2023/03/21 07:15:53;;;;;;;3.70;1.52;;;;;;;19.02;43.92;101361.31;5050562;28;20036;-73
2023/03/21 07:18:18;;;;;;;4.30;1.40;;;;;;;19.02;43.91;101363.94;5049666;28;20458;-73
2023/03/21 07:20:49;;;;;;;3.72;1.50;;;;;;;19.01;43.98;101350.88;5051398;28;20040;-75
2023/03/21 07:23:19;;;;;;;4.50;1.70;;;;;;;19.03;44.04;101359.53;5051318;28;20036;-68
2023/03/21 07:25:47;;;;;;;4.32;1.50;;;;;;;19.05;44.01;101360.25;5051538;28;20055;-75
2023/03/21 07:28:12;;;;;;;3.15;1.25;;;;;;;19.07;43.95;101366.25;5042033;28;20083;-70
2023/03/21 07:30:37;;;;;;;3.75;1.50;;;;;;;19.01;44.15;101361.44;5050263;28;20036;-73
2023/03/21 07:33:03;;;;;;;3.50;1.48;;;;;;;19.07;44.21;101366.25;5051511;28;20396;-72
2023/03/21 07:35:28;;;;;;;4.70;1.58;;;;;;;19.06;44.30;101366.34;5051588;28;20115;-72
2023/03/21 07:37:53;;;;;;;4.93;1.85;;;;;;;19.07;44.47;101368.03;5050871;28;20051;-73
2023/03/21 07:40:19;;;;;;;4.80;1.80;;;;;;;19.06;44.55;101364.56;5051054;28;20074;-74
2023/03/21 07:42:44;;;;;;;4.22;1.65;;;;;;;19.07;44.60;101358.31;5050751;28;20029;-74
2023/03/21 07:45:11;;;;;;;5.63;1.88;;;;;;;19.03;44.66;101351.59;5050725;28;20064;-75
2023/03/21 07:47:37;;;;;;;4.78;1.77;;;;;;;19.06;44.74;101353.16;5051512;28;20043;-74
2023/03/21 07:50:03;;;;;;;4.40;1.50;;;;;;;19.07;44.67;101352.19;5051719;28;20037;-75
2023/03/21 07:52:29;;;;;;;7.53;2.20;;;;;;;19.08;44.91;101346.78;5050740;28;20252;-74
2023/03/21 07:54:54;;;;;;;3.97;1.80;;;;;;;19.06;45.03;101345.22;5050030;28;20461;-72
2023/03/21 07:57:20;;;;;;;4.78;1.73;;;;;;;19.09;45.02;101345.00;5051204;28;20039;-75
2023/03/21 07:59:45;;;;;;;6.05;2.25;;;;;;;19.09;45.14;101345.00;5050714;28;20098;-70
2023/03/21 08:02:15;;;;;;;3.75;1.52;;;;;;;19.08;45.04;101332.75;5050953;28;20547;-74
2023/03/21 08:04:40;;;;;;;4.55;1.70;;;;;;;19.08;45.60;101333.59;5052218;28;20064;-74
2023/03/21 08:07:05;;;;;;;5.85;1.67;;;;;;;19.10;45.71;101322.91;5051022;28;20079;-73
2023/03/21 08:09:31;;;;;;;5.28;2.20;;;;;;;19.11;46.53;101322.78;5050572;28;20447;-75
2023/03/21 08:11:56;;;;;;;5.22;2.30;;;;;;;19.11;47.53;101317.50;5050790;28;20458;-76
2023/03/21 08:14:22;;;;;;;7.65;2.80;;;;;;;19.08;47.92;101312.44;5050919;28;20519;-77
2023/03/21 08:16:47;;;;;;;9.43;2.67;;;;;;;19.15;48.04;101318.09;5050515;28;20466;-74
2023/03/21 08:19:12;;;;;;;6.63;2.40;;;;;;;19.15;48.34;101302.25;5049355;28;20482;-74
2023/03/21 08:21:38;;;;;;;5.35;2.55;;;;;;;19.15;47.83;101295.19;5050694;28;20035;-74
2023/03/21 08:24:04;;;;;;;8.25;2.40;;;;;;;19.16;47.90;101301.28;5050274;28;20081;-75
2023/03/21 08:26:30;;;;;;;7.30;2.30;;;;;;;19.18;47.59;101300.22;5050436;28;20029;-76
2023/03/21 08:28:56;;;;;;;7.72;2.50;;;;;;;19.15;47.78;101292.53;5050962;28;20075;-75
2023/03/21 08:31:22;;;;;;;7.32;2.30;;;;;;;19.17;47.86;101292.41;5050112;28;20072;-75
2023/03/21 08:33:52;;;;;;;6.85;2.55;;;;;;;19.16;47.60;101293.38;5050871;28;20037;-75
2023/03/21 08:36:17;;;;;;;6.20;2.30;;;;;;;19.16;47.41;101296.84;5051507;28;20078;-75
2023/03/21 08:38:44;;;;;;;6.90;2.28;;;;;;;19.11;47.39;101283.16;5051274;28;20037;-73
2023/03/21 08:41:10;;;;;;;6.10;2.50;;;;;;;19.16;47.44;101288.91;5040921;28;20106;-74
2023/03/21 08:43:36;;;;;;;7.38;2.42;;;;;;;19.10;47.51;101278.00;5046844;28;20029;-78
2023/03/21 08:46:03;;;;;;;5.03;2.30;;;;;;;19.17;47.46;101295.88;5050545;28;20120;-77
2023/03/21 08:48:28;;;;;;;9.43;2.10;;;;;;;19.16;47.21;101285.44;5040938;28;20064;-76
2023/03/21 08:50:53;;;;;;;7.05;2.40;;;;;;;19.17;47.13;101292.41;5049927;28;20515;-76
2023/03/21 08:53:19;;;;;;;7.80;2.25;;;;;;;19.17;47.58;101287.97;5050877;28;20040;-75
2023/03/21 08:55:44;;;;;;;6.47;2.35;;;;;;;19.18;47.36;101287.00;5050826;28;20435;-76
2023/03/21 08:58:10;;;;;;;7.32;2.38;;;;;;;19.14;47.41;101268.88;5041004;28;20472;-79
2023/03/21 09:00:35;;;;;;;6.82;2.28;;;;;;;19.18;47.30;101278.22;5048413;28;20044;-77
2023/03/21 09:03:00;;;;;;;7.78;2.50;;;;;;;19.16;47.24;101267.78;5050803;28;20036;-78
2023/03/21 09:05:27;;;;;;;6.72;2.28;;;;;;;19.17;47.13;101273.91;5065094;28;20047;-77
2023/03/21 09:07:52;;;;;;;8.98;2.13;;;;;;;19.15;47.18;101274.03;5051239;28;20033;-77
2023/03/21 09:10:22;;;;;;;8.00;2.40;;;;;;;19.16;46.92;101280.16;5068628;28;20609;-76
2023/03/21 09:12:50;;;;;;;8.13;2.08;;;;;;;19.17;47.16;101268.63;5044084;28;20124;-75
2023/03/21 09:15:17;;;;;;;6.65;1.80;;;;;;;19.09;47.11;101269.22;5054811;28;20493;-77
2023/03/21 09:17:43;;;;;;;8.32;2.00;;;;;;;19.07;47.12;101263.22;5053999;28;20033;-75
2023/03/21 09:20:16;;;;;;;5.57;2.00;;;;;;;19.13;47.00;101261.91;5044693;28;20056;-75
2023/03/21 09:22:42;;;;;;;7.17;2.10;;;;;;;19.15;47.07;101268.75;5053166;28;20161;-74
2023/03/21 09:25:10;;;;;;;5.50;2.00;;;;;;;19.15;46.80;101274.03;5052200;28;20153;-75
2023/03/21 09:27:35;;;;;;;6.93;2.10;;;;;;;19.13;46.97;101262.72;5051929;28;20089;-75
2023/03/21 09:30:01;;;;;;;7.05;2.28;;;;;;;19.14;47.03;101269.72;5053987;28;20036;-74
2023/03/21 09:32:27;;;;;;;4.60;1.73;;;;;;;19.15;46.98;101266.13;5053151;28;20043;-75
2023/03/21 09:34:54;;;;;;;6.75;2.30;;;;;;;19.13;46.83;101262.72;5053072;28;20043;-75
2023/03/21 09:37:20;;;;;;;5.68;1.92;;;;;;;19.11;46.84;101254.09;5052323;28;20029;-76
2023/03/21 09:39:45;;;;;;;5.45;1.80;;;;;;;19.12;46.69;101250.50;5052795;28;20032;-74
2023/03/21 09:42:32;;;;;;;7.00;2.20;;;;;;;19.10;46.94;101257.69;5053019;28;20033;-75
2023/03/21 09:45:22;;;;;;;5.70;1.98;;;;;;;19.10;46.94;101252.41;5053282;28;20039;-75
2023/03/21 09:47:52;;;;;;;4.72;1.80;;;;;;;19.11;46.66;101254.09;5068640;28;20040;-74
2023/03/21 09:50:26;;;;;;;7.32;1.80;;;;;;;19.10;46.72;101252.41;5053112;28;20032;-73
2023/03/21 09:53:23;;;;;;;6.32;2.30;;;;;;;19.11;46.66;101246.16;5053281;28;20462;-75
2023/03/21 09:55:49;;;;;;;4.60;1.90;;;;;;;19.12;46.73;101247.00;5053514;28;20051;-74
2023/03/21 09:58:35;;;;;;;5.47;1.75;;;;;;;19.12;46.71;101239.94;5050756;28;20385;-68
2023/03/21 10:01:28;;;;;;;5.10;1.70;;;;;;;19.23;46.86;101240.88;5051630;28;20405;-69
2023/03/21 10:04:04;;;;;;;8.35;2.22;;;;;;;19.28;46.68;101228.97;5051852;28;20042;-69
2023/03/21 10:06:30;;;;;;;4.30;2.00;;;;;;;19.28;46.61;101225.47;5051665;28;20135;-71
2023/03/21 10:09:22;;;;;;;7.03;1.98;;;;;;;19.28;46.82;101231.63;5051662;28;20031;-70
2023/03/21 10:12:13;;;;;;;5.40;2.10;;;;;;;19.29;46.73;101228.00;5052980;28;20051;-69
2023/03/21 10:14:47;;;;;;;7.18;1.90;;;;;;;19.31;46.93;101222.59;5054609;28;20106;-72
2023/03/21 10:17:36;;;;;;;5.68;1.88;;;;;;;19.30;46.73;101224.41;5054030;28;20425;-73
2023/03/21 10:20:22;;;;;;;6.45;1.83;;;;;;;19.32;46.82;101211.91;5058318;28;20378;-71
2023/03/21 10:22:51;;;;;;;4.32;1.77;;;;;;;19.35;46.57;101211.66;5058176;28;20135;-70
2023/03/21 10:25:30;;;;;;;5.25;1.92;;;;;;;19.38;46.50;101221.97;5056425;28;20045;-71
2023/03/21 10:27:55;;;;;;;4.93;1.73;;;;;;;19.37;46.49;101215.00;5051271;28;20158;-72
2023/03/21 10:30:31;;;;;;;5.05;2.00;;;;;;;19.35;46.36;101205.53;5052034;28;20503;-73
2023/03/21 10:33:01;;;;;;;5.32;1.90;;;;;;;19.38;46.27;101213.22;5052497;28;20060;-72
2023/03/21 10:35:26;;;;;;;4.90;1.63;;;;;;;19.37;46.38;101211.53;5052910;28;20028;-73
2023/03/21 10:37:52;;;;;;;5.25;1.80;;;;;;;19.34;46.35;101207.34;5052760;28;20527;-73
2023/03/21 10:40:17;;;;;;;4.90;1.60;;;;;;;19.32;46.38;101205.78;5043404;28;20044;-72
2023/03/21 10:42:43;;;;;;;6.20;1.58;;;;;;;19.32;46.38;101211.06;5052330;28;20120;-71
2023/03/21 10:45:19;;;;;;;4.45;1.60;;;;;;;19.30;46.50;101216.47;5052567;28;20037;-73
2023/03/21 10:47:48;;;;;;;5.18;1.90;;;;;;;19.27;46.38;101208.78;5052412;28;20032;-73
2023/03/21 10:50:18;;;;;;;3.95;1.70;;;;;;;19.28;46.48;101210.50;5051933;28;20040;-74
2023/03/21 10:52:49;;;;;;;5.35;1.90;;;;;;;19.26;46.38;101214.19;5052552;28;20064;-73
2023/03/21 10:55:28;;;;;;;3.92;1.50;;;;;;;19.28;46.38;101209.63;5052741;28;20773;-72
2023/03/21 10:58:01;;;;;;;4.05;1.67;;;;;;;19.27;46.42;101208.78;5052871;28;20029;-71
2023/03/21 11:00:32;;;;;;;3.58;1.60;;;;;;;19.25;46.49;101205.44;5052827;28;20485;-71
2023/03/21 11:02:58;;;;;;;4.38;1.80;;;;;;;19.26;46.51;101201.00;5052045;28;20029;-71
2023/03/21 11:05:33;;;;;;;5.22;1.70;;;;;;;19.26;46.49;101193.91;5051652;28;20174;-68
2023/03/21 11:08:03;;;;;;;5.80;1.52;;;;;;;19.24;46.44;101197.66;5051500;28;20028;-72
2023/03/21 11:10:33;;;;;;;5.35;1.50;;;;;;;19.22;46.43;101192.47;5051543;28;20206;-72
2023/03/21 11:13:04;;;;;;;4.05;1.48;;;;;;;19.25;46.39;101194.88;5051941;28;20032;-69
2023/03/21 11:15:45;;;;;;;5.50;1.52;;;;;;;19.24;46.57;101193.19;5050256;28;20183;-66
2023/03/21 11:18:23;;;;;;;4.78;1.73;;;;;;;19.30;46.34;101190.06;5050514;28;20063;-68
2023/03/21 11:20:51;;;;;;;7.40;1.60;;;;;;;19.42;46.03;101214.63;5050247;28;20060;-69
2023/03/21 11:23:18;;;;;;;5.22;1.48;;;;;;;19.47;46.04;101203.69;5050446;28;20064;-71
2023/03/21 11:25:48;;;;;;;5.93;1.40;;;;;;;19.44;46.13;101206.59;5043269;28;20024;-68
2023/03/21 11:28:20;;;;;;;7.95;3.35;;;;;;;19.48;46.17;101208.84;5050629;28;20401;-69
2023/03/21 11:31:02;;;;;;;5.10;1.58;;;;;;;19.48;46.07;101202.75;5050117;28;20028;-70
2023/03/21 11:33:35;;;;;;;4.85;1.52;;;;;;;19.50;46.03;101191.09;5051460;28;20052;-69